createdAt,value
2019-05-03T00:01:02.394Z,100885.56
2019-05-03T00:03:32.719Z,100888.55
2019-05-03T00:06:05.690Z,100882.05
2019-05-03T00:08:35.553Z,100881.37
2019-05-03T00:11:05.446Z,100886.70
2019-05-03T00:13:35.334Z,100885.33
2019-05-03T00:16:12.636Z,100890.89
2019-05-03T00:18:42.484Z,100888.51
2019-05-03T00:21:12.302Z,100886.21
2019-05-03T00:23:42.076Z,100890.97
2019-05-03T00:26:12.090Z,100884.52
2019-05-03T00:28:42.654Z,100889.16
2019-05-03T00:31:12.686Z,100887.06
2019-05-03T00:33:44.032Z,100891.58
2019-05-03T00:36:22.387Z,100885.25
2019-05-03T00:38:53.812Z,100898.10
2019-05-03T00:41:23.490Z,100886.05
2019-05-03T00:43:53.328Z,100889.20
2019-05-03T00:46:23.058Z,100889.80
2019-05-03T00:48:52.833Z,100886.86
2019-05-03T00:51:22.706Z,100889.48
2019-05-03T00:53:53.052Z,100883.27
2019-05-03T00:56:22.937Z,100887.30
2019-05-03T00:58:54.435Z,100885.77
2019-05-03T01:01:24.118Z,100890.81
2019-05-03T01:03:54.025Z,100897.42
2019-05-03T01:06:23.741Z,100893.19
2019-05-03T01:08:53.481Z,100892.95
2019-05-03T01:11:23.260Z,100892.39
2019-05-03T01:13:53.004Z,100894.77
2019-05-03T01:16:24.500Z,100893.47
2019-05-03T01:18:54.303Z,100896.66
2019-05-03T01:21:24.008Z,100893.68
2019-05-03T01:23:53.742Z,100894.81
2019-05-03T01:26:23.510Z,100892.42
2019-05-03T01:28:53.361Z,100893.92
2019-05-03T01:31:23.210Z,100890.20
2019-05-03T01:33:53.733Z,100888.71
2019-05-03T01:36:23.539Z,100891.94
2019-05-03T01:38:53.310Z,100889.80
2019-05-03T01:41:23.336Z,100893.27
2019-05-03T01:43:53.143Z,100894.77
2019-05-03T01:46:23.107Z,100897.78
2019-05-03T01:48:58.544Z,100893.80
2019-05-03T01:51:32.940Z,100890.78
2019-05-03T01:54:02.751Z,100888.44
2019-05-03T01:56:32.420Z,100898.84
2019-05-03T01:59:02.167Z,100892.91
2019-05-03T02:01:42.413Z,100895.13
2019-05-03T02:04:13.828Z,100903.36
2019-05-03T02:06:43.597Z,100905.17
2019-05-03T02:09:13.446Z,100901.22
2019-05-03T02:11:43.137Z,100909.72
2019-05-03T02:14:13.107Z,100906.27
2019-05-03T02:16:42.947Z,100913.75
2019-05-03T02:19:12.729Z,100911.37
2019-05-03T02:21:42.525Z,100913.82
2019-05-03T02:24:12.214Z,100911.69
2019-05-03T02:26:42.468Z,100914.63
2019-05-03T02:29:12.669Z,100916.20
2019-05-03T02:31:43.626Z,100920.20
2019-05-03T02:34:13.587Z,100925.80
2019-05-03T02:36:43.364Z,100929.82
2019-05-03T02:39:14.800Z,100930.34
2019-05-03T02:41:47.812Z,100929.30
2019-05-03T02:44:17.641Z,100931.92
2019-05-03T02:46:58.140Z,100931.98
2019-05-03T02:49:29.488Z,100932.48
2019-05-03T02:51:59.263Z,100936.00
2019-05-03T02:54:29.178Z,100938.39
2019-05-03T02:56:59.017Z,100934.70
2019-05-03T02:59:28.855Z,100945.64
2019-05-03T03:01:58.810Z,100941.10
2019-05-03T03:04:28.971Z,100942.43
2019-05-03T03:07:00.372Z,100935.53
2019-05-03T03:09:30.877Z,100934.50
2019-05-03T03:12:02.040Z,100936.61
2019-05-03T03:14:36.279Z,100935.55
2019-05-03T03:17:08.860Z,100935.81
2019-05-03T03:19:42.170Z,100937.14
2019-05-03T03:22:15.951Z,100945.13
2019-05-03T03:24:50.333Z,100947.50
2019-05-03T03:27:25.886Z,100948.85
2019-05-03T03:30:08.173Z,100943.53
2019-05-03T03:32:41.505Z,100946.77
2019-05-03T03:35:21.040Z,100946.75
2019-05-03T03:37:50.649Z,100958.98
2019-05-03T03:40:22.112Z,100960.84
2019-05-03T03:42:55.637Z,100955.48
2019-05-03T03:45:25.578Z,100952.30
2019-05-03T03:47:56.225Z,100958.19
2019-05-03T03:50:29.858Z,100950.73
2019-05-03T03:53:06.509Z,100962.41
2019-05-03T03:55:38.508Z,100968.28
2019-05-03T03:58:08.616Z,100966.55
2019-05-03T04:00:38.486Z,100983.57
2019-05-03T04:03:08.625Z,100980.92
2019-05-03T04:05:38.514Z,100983.58
2019-05-03T04:08:08.692Z,100989.42
2019-05-03T04:10:39.315Z,100994.72
2019-05-03T04:13:10.993Z,100997.64
2019-05-03T04:15:59.102Z,101000.29
2019-05-03T04:18:30.801Z,100998.17
2019-05-03T04:21:00.611Z,101010.65
2019-05-03T04:23:32.117Z,101012.25
2019-05-03T04:26:03.391Z,101012.78
2019-05-03T04:28:36.213Z,101021.48
2019-05-03T04:31:06.401Z,101022.04
2019-05-03T04:33:36.323Z,101021.52
2019-05-03T04:36:06.597Z,101023.13
2019-05-03T04:38:36.371Z,101029.25
2019-05-03T04:41:06.360Z,101024.72
2019-05-03T04:43:36.237Z,101027.39
2019-05-03T04:46:10.433Z,101040.42
2019-05-03T04:48:40.155Z,101036.95
2019-05-03T04:51:10.322Z,101043.87
2019-05-03T04:53:41.926Z,101044.92
2019-05-03T04:56:11.698Z,101046.78
2019-05-03T04:58:41.470Z,101048.90
2019-05-03T05:01:11.108Z,101048.38
2019-05-03T05:03:41.807Z,101056.37
2019-05-03T05:06:11.463Z,101055.53
2019-05-03T05:08:41.143Z,101057.14
2019-05-03T05:11:10.862Z,101062.72
2019-05-03T05:13:40.526Z,101063.01
2019-05-03T05:16:10.164Z,101063.52
2019-05-03T05:18:41.614Z,101064.59
2019-05-03T05:21:14.846Z,101069.36
2019-05-03T05:24:01.441Z,101065.92
2019-05-03T05:26:39.071Z,101069.64
2019-05-03T05:29:26.513Z,101078.41
2019-05-03T05:31:56.550Z,101084.25
2019-05-03T05:34:26.401Z,101085.05
2019-05-03T05:36:56.146Z,101086.39
2019-05-03T05:39:26.004Z,101086.66
2019-05-03T05:41:55.646Z,101091.70
2019-05-03T05:44:25.376Z,101086.91
2019-05-03T05:46:56.757Z,101087.98
2019-05-03T05:49:44.394Z,101092.48
2019-05-03T05:52:15.427Z,101095.38
2019-05-03T05:54:46.953Z,101099.92
2019-05-03T05:57:18.469Z,101098.30
2019-05-03T05:59:49.787Z,101103.38
2019-05-03T06:02:20.569Z,101104.17
2019-05-03T06:04:50.332Z,101108.12
2019-05-03T06:07:30.565Z,101114.50
2019-05-03T06:10:01.996Z,101106.27
2019-05-03T06:12:49.599Z,101109.72
2019-05-03T06:15:35.782Z,101109.67
2019-05-03T06:18:19.489Z,101104.05
2019-05-03T06:21:06.723Z,101101.20
2019-05-03T06:23:38.111Z,101100.42
2019-05-03T06:26:25.433Z,101098.80
2019-05-03T06:28:55.501Z,101108.08
2019-05-03T06:31:34.303Z,101116.27
2019-05-03T06:34:04.577Z,101114.04
2019-05-03T06:36:35.406Z,101119.64
2019-05-03T06:39:09.073Z,101118.06
2019-05-03T06:41:38.952Z,101112.59
2019-05-03T06:44:08.741Z,101116.22
2019-05-03T06:46:46.093Z,101107.02
2019-05-03T06:49:16.451Z,101104.00
2019-05-03T06:51:49.757Z,101101.55
2019-05-03T06:54:20.598Z,101107.23
2019-05-03T06:56:49.638Z,101111.07
2019-05-03T06:59:29.695Z,101110.48
2019-05-03T07:02:02.247Z,101118.91
2019-05-03T07:04:31.766Z,101119.44
2019-05-03T07:07:08.891Z,101117.52
2019-05-03T07:09:41.082Z,101112.47
2019-05-03T07:12:10.885Z,101117.20
2019-05-03T07:14:40.561Z,101121.16
2019-05-03T07:17:10.384Z,101120.39
2019-05-03T07:19:40.038Z,101120.25
2019-05-03T07:22:10.005Z,101123.44
2019-05-03T07:24:40.915Z,101122.50
2019-05-03T07:27:10.821Z,101134.38
2019-05-03T07:29:40.482Z,101126.89
2019-05-03T07:32:10.399Z,101128.75
2019-05-03T07:34:40.151Z,101123.75
2019-05-03T07:37:09.922Z,101117.80
2019-05-03T07:39:39.704Z,101110.04
2019-05-03T07:42:09.461Z,101110.22
2019-05-03T07:44:39.139Z,101107.28
2019-05-03T07:47:08.885Z,101108.29
2019-05-03T07:49:38.553Z,101105.44
2019-05-03T07:52:08.276Z,101111.17
2019-05-03T07:54:37.926Z,101109.23
2019-05-03T07:57:18.268Z,101110.95
2019-05-03T07:59:48.012Z,101112.58
2019-05-03T08:02:17.738Z,101121.19
2019-05-03T08:04:47.402Z,101123.56
2019-05-03T08:07:22.478Z,101115.18
2019-05-03T08:09:48.481Z,101120.47
2019-05-03T08:12:18.233Z,101119.15
2019-05-03T08:14:47.863Z,101114.62
2019-05-03T08:17:17.711Z,101112.27
2019-05-03T08:19:47.448Z,101109.19
2019-05-03T08:22:17.212Z,101113.59
2019-05-03T08:24:47.187Z,101111.95
2019-05-03T08:27:16.967Z,101113.29
2019-05-03T08:29:46.647Z,101107.50
2019-05-03T08:32:19.203Z,101107.95
2019-05-03T08:34:50.488Z,101104.88
2019-05-03T08:37:24.561Z,101110.11
2019-05-03T08:39:55.199Z,101112.70
2019-05-03T08:42:26.193Z,101108.80
2019-05-03T08:44:55.966Z,101111.09
2019-05-03T08:47:25.653Z,101112.19
2019-05-03T08:49:55.558Z,101108.91
2019-05-03T08:52:25.566Z,101114.61
2019-05-03T08:54:55.309Z,101117.39
2019-05-03T08:57:25.558Z,101115.27
2019-05-03T08:59:55.341Z,101123.27
2019-05-03T09:02:25.745Z,101118.65
2019-05-03T09:04:55.715Z,101115.55
2019-05-03T09:07:25.570Z,101117.31
2019-05-03T09:10:05.285Z,101116.81
2019-05-03T09:12:52.657Z,101116.86
2019-05-03T09:15:24.544Z,101129.87
2019-05-03T09:17:55.253Z,101121.14
2019-05-03T09:20:25.260Z,101117.99
2019-05-03T09:22:55.470Z,101112.61
2019-05-03T09:25:25.283Z,101112.61
2019-05-03T09:27:55.333Z,101108.36
2019-05-03T09:30:25.676Z,101111.70
2019-05-03T09:32:55.796Z,101107.94
2019-05-03T09:35:30.530Z,101114.11
2019-05-03T09:37:57.100Z,101103.73
2019-05-03T09:40:26.752Z,101101.19
2019-05-03T09:42:56.629Z,101098.56
2019-05-03T09:45:26.444Z,101089.44
2019-05-03T09:47:56.250Z,101087.02
2019-05-03T09:50:25.966Z,101088.42
2019-05-03T09:52:55.682Z,101084.39
2019-05-03T09:55:32.760Z,101076.19
2019-05-03T09:58:02.648Z,101085.15
2019-05-03T10:00:32.294Z,101084.42
2019-05-03T10:03:01.981Z,101092.71
2019-05-03T10:05:31.776Z,101089.22
2019-05-03T10:08:01.556Z,101085.98
2019-05-03T10:10:32.964Z,101084.18
2019-05-03T10:13:13.008Z,101081.31
2019-05-03T10:15:39.973Z,101084.94
2019-05-03T10:18:11.628Z,101083.41
2019-05-03T10:20:41.438Z,101085.70
2019-05-03T10:23:14.781Z,101082.95
2019-05-03T10:25:45.491Z,101090.66
2019-05-03T10:28:15.874Z,101084.65
2019-05-03T10:30:45.566Z,101087.27
2019-05-03T10:33:17.016Z,101079.03
2019-05-03T10:35:47.011Z,101086.31
2019-05-03T10:38:16.688Z,101082.95
2019-05-03T10:40:46.382Z,101083.88
2019-05-03T10:43:16.179Z,101082.38
2019-05-03T10:45:45.889Z,101080.28
2019-05-03T10:48:16.132Z,101082.34
2019-05-03T10:50:46.163Z,101085.25
2019-05-03T10:53:23.472Z,101077.87
2019-05-03T10:56:13.480Z,101079.81
2019-05-03T10:58:45.278Z,101079.00
2019-05-03T11:01:16.859Z,101080.59
2019-05-03T11:03:46.677Z,101085.86
2019-05-03T11:06:16.553Z,101082.44
2019-05-03T11:08:46.723Z,101086.55
2019-05-03T11:11:16.513Z,101088.02
2019-05-03T11:13:46.257Z,101080.91
2019-05-03T11:16:16.150Z,101076.44
2019-05-03T11:18:45.802Z,101072.61
2019-05-03T11:21:27.411Z,101067.22
2019-05-03T11:23:46.954Z,101066.95
2019-05-03T11:26:17.009Z,101068.20
2019-05-03T11:28:46.648Z,101061.03
2019-05-03T11:31:35.396Z,101073.94
2019-05-03T11:34:06.950Z,101063.36
2019-05-03T11:36:54.917Z,101061.11
2019-05-03T11:39:25.176Z,101051.52
2019-05-03T11:41:59.514Z,101047.48
2019-05-03T11:44:33.858Z,101043.64
2019-05-03T11:47:05.631Z,101050.66
2019-05-03T11:49:35.091Z,101044.13
2019-05-03T11:52:06.566Z,101045.24
2019-05-03T11:54:36.506Z,101039.02
2019-05-03T11:57:07.991Z,101037.97
2019-05-03T11:59:37.668Z,101041.09
2019-05-03T12:02:16.483Z,101036.42
2019-05-03T12:04:46.216Z,101041.09
2019-05-03T12:07:18.487Z,101036.81
2019-05-03T12:09:48.259Z,101035.38
2019-05-03T12:12:19.622Z,101029.16
2019-05-03T12:14:49.354Z,101036.06
2019-05-03T12:17:26.882Z,101040.81
2019-05-03T12:19:53.351Z,101033.83
2019-05-03T12:22:26.088Z,101036.77
2019-05-03T12:24:56.055Z,101033.41
2019-05-03T12:27:26.125Z,101037.23
2019-05-03T12:29:55.905Z,101030.09
2019-05-03T12:32:25.625Z,101018.38
2019-05-03T12:34:55.317Z,101021.02
2019-05-03T12:37:24.971Z,101007.96
2019-05-03T12:39:54.919Z,101000.88
2019-05-03T12:42:25.582Z,101009.87
2019-05-03T12:44:55.487Z,101004.91
2019-05-03T12:47:25.287Z,101009.91
2019-05-03T12:49:55.887Z,101001.03
2019-05-03T12:52:26.807Z,101004.20
2019-05-03T12:54:57.022Z,100995.33
2019-05-03T12:57:27.161Z,100998.93
2019-05-03T12:59:58.573Z,101000.28
2019-05-03T13:02:32.853Z,100993.90
2019-05-03T13:05:04.714Z,100992.20
2019-05-03T13:07:35.628Z,100986.75
2019-05-03T13:10:07.839Z,100989.97
2019-05-03T13:12:49.853Z,100986.22
2019-05-03T13:15:10.352Z,100990.66
2019-05-03T13:17:40.052Z,100988.72
2019-05-03T13:20:14.159Z,100984.08
2019-05-03T13:22:45.766Z,100981.80
2019-05-03T13:25:16.532Z,100978.72
2019-05-03T13:27:46.427Z,100978.59
2019-05-03T13:30:19.064Z,100980.24
2019-05-03T13:32:50.602Z,100980.85
2019-05-03T13:35:20.384Z,100984.03
2019-05-03T13:37:50.091Z,100977.57
2019-05-03T13:40:19.880Z,100984.19
2019-05-03T13:42:57.097Z,100973.39
2019-05-03T13:45:20.967Z,100970.53
2019-05-03T13:47:50.656Z,100975.53
2019-05-03T13:50:20.480Z,100971.09
2019-05-03T13:52:50.454Z,100970.59
2019-05-03T13:55:20.108Z,100965.21
2019-05-03T13:57:49.818Z,100967.16
2019-05-03T14:00:20.597Z,100957.24
2019-05-03T14:02:50.379Z,100951.45
2019-05-03T14:05:20.059Z,100953.91
2019-05-03T14:07:49.783Z,100960.53
2019-05-03T14:10:19.659Z,100956.59
2019-05-03T14:12:49.423Z,100949.95
2019-05-03T14:15:19.465Z,100950.01
2019-05-03T14:17:49.203Z,100950.78
2019-05-03T14:20:29.866Z,100956.61
2019-05-03T14:22:59.657Z,100950.39
2019-05-03T14:25:29.414Z,100939.59
2019-05-03T14:27:59.721Z,100948.68
2019-05-03T14:30:29.639Z,100947.54
2019-05-03T14:32:59.366Z,100942.88
2019-05-03T14:35:29.103Z,100939.91
2019-05-03T14:37:58.791Z,100933.86
2019-05-03T14:40:28.725Z,100937.77
2019-05-03T14:42:58.399Z,100935.69
2019-05-03T14:45:28.184Z,100948.23
2019-05-03T14:47:58.197Z,100944.07
2019-05-03T14:50:27.955Z,100941.65
2019-05-03T14:52:57.697Z,100947.12
2019-05-03T14:55:29.079Z,100943.77
2019-05-03T14:58:00.470Z,100938.06
2019-05-03T15:00:34.662Z,100942.14
2019-05-03T15:03:06.172Z,100954.39
2019-05-03T15:05:36.373Z,100946.05
2019-05-03T15:08:06.739Z,100940.25
2019-05-03T15:10:36.392Z,100946.10
2019-05-03T15:13:06.461Z,100938.34
2019-05-03T15:15:36.191Z,100937.16
2019-05-03T15:18:06.248Z,100941.47
2019-05-03T15:20:36.047Z,100943.76
2019-05-03T15:23:05.825Z,100941.27
2019-05-03T15:25:35.661Z,100941.67
2019-05-03T15:28:05.585Z,100949.63
2019-05-03T15:30:35.451Z,100945.22
2019-05-03T15:33:05.333Z,100944.41
2019-05-03T15:35:35.391Z,100932.82
2019-05-03T15:38:05.703Z,100942.72
2019-05-03T15:40:35.515Z,100947.77
2019-05-03T15:43:06.979Z,100943.83
2019-05-03T15:45:38.312Z,100934.69
2019-05-03T15:48:08.135Z,100941.50
2019-05-03T15:50:38.183Z,100940.36
2019-05-03T15:53:08.025Z,100933.67
2019-05-03T15:55:37.814Z,100936.98
2019-05-03T15:58:07.631Z,100940.56
2019-05-03T16:00:37.504Z,100940.45
2019-05-03T16:03:10.449Z,100938.58
2019-05-03T16:05:38.691Z,100932.73
2019-05-03T16:08:08.500Z,100932.98
2019-05-03T16:10:38.193Z,100930.50
2019-05-03T16:13:07.967Z,100925.70
2019-05-03T16:15:37.744Z,100934.19
2019-05-03T16:18:07.865Z,100926.83
2019-05-03T16:20:39.387Z,100930.33
2019-05-03T16:23:09.501Z,100925.02
2019-05-03T16:25:39.281Z,100920.47
2019-05-03T16:28:10.581Z,100921.84
2019-05-03T16:30:48.064Z,100915.23
2019-05-03T16:33:27.284Z,100917.30
2019-05-03T16:35:49.328Z,100907.04
2019-05-03T16:38:19.052Z,100912.48
2019-05-03T16:40:48.742Z,100918.01
2019-05-03T16:43:18.427Z,100918.16
2019-05-03T16:45:48.207Z,100917.50
2019-05-03T16:48:18.493Z,100911.20
2019-05-03T16:50:48.295Z,100908.33
2019-05-03T16:53:18.024Z,100911.13
2019-05-03T16:55:47.763Z,100912.36
2019-05-03T16:58:17.525Z,100917.75
2019-05-03T17:00:47.276Z,100916.95
2019-05-03T17:03:18.615Z,100912.13
2019-05-03T17:05:52.642Z,100913.20
2019-05-03T17:08:25.076Z,100914.14
2019-05-03T17:10:57.049Z,100909.92
2019-05-03T17:13:26.927Z,100909.05
2019-05-03T17:15:56.635Z,100914.36
2019-05-03T17:18:26.479Z,100907.92
2019-05-03T17:20:56.289Z,100910.03
2019-05-03T17:23:26.130Z,100910.39
2019-05-03T17:25:55.997Z,100909.06
2019-05-03T17:28:25.714Z,100908.63
2019-05-03T17:30:55.550Z,100907.85
2019-05-03T17:33:25.354Z,100906.54
2019-05-03T17:35:55.205Z,100906.44
2019-05-03T17:38:24.929Z,100903.12
2019-05-03T17:41:12.735Z,100905.25
2019-05-03T17:43:46.845Z,100903.27
2019-05-03T17:46:16.557Z,100896.84
2019-05-03T17:48:46.373Z,100897.48
2019-05-03T17:51:35.154Z,100900.40
2019-05-03T17:54:06.684Z,100898.00
2019-05-03T17:56:38.097Z,100885.67
2019-05-03T17:59:09.608Z,100883.56
2019-05-03T18:01:50.211Z,100888.27
2019-05-03T18:04:21.623Z,100885.81
2019-05-03T18:06:51.218Z,100884.31
2019-05-03T18:09:22.537Z,100896.48
2019-05-03T18:11:56.595Z,100890.63
2019-05-03T18:14:26.304Z,100892.91
2019-05-03T18:16:56.212Z,100897.30
2019-05-03T18:19:25.911Z,100893.67
2019-05-03T18:21:55.621Z,100889.08
2019-05-03T18:24:25.295Z,100885.38
2019-05-03T18:26:55.036Z,100887.27
2019-05-03T18:29:25.294Z,100893.48
2019-05-03T18:31:55.204Z,100891.00
2019-05-03T18:34:25.083Z,100885.07
2019-05-03T18:36:55.047Z,100879.40
2019-05-03T18:39:25.300Z,100891.38
2019-05-03T18:41:55.208Z,100888.53
2019-05-03T18:44:30.658Z,100893.58
2019-05-03T18:47:02.702Z,100894.39
2019-05-03T18:49:32.354Z,100885.58
2019-05-03T18:52:02.058Z,100890.28
2019-05-03T18:54:31.857Z,100886.45
2019-05-03T18:57:01.635Z,100889.75
2019-05-03T18:59:31.361Z,100886.38
2019-05-03T19:02:01.150Z,100883.95
2019-05-03T19:04:35.760Z,100890.78
2019-05-03T19:07:07.102Z,100886.45
2019-05-03T19:09:40.369Z,100890.27
2019-05-03T19:12:15.435Z,100895.98
2019-05-03T19:14:45.722Z,100897.89
2019-05-03T19:17:24.755Z,100899.12
2019-05-03T19:19:56.252Z,100896.45
2019-05-03T19:22:26.167Z,100898.27
2019-05-03T19:24:55.845Z,100898.75
2019-05-03T19:27:25.571Z,100901.69
2019-05-03T19:29:55.590Z,100896.03
2019-05-03T19:32:28.250Z,100895.94
2019-05-03T19:34:56.816Z,100893.84
2019-05-03T19:37:26.749Z,100890.08
2019-05-03T19:39:56.532Z,100893.83
2019-05-03T19:42:27.355Z,100893.22
2019-05-03T19:44:57.198Z,100900.09
2019-05-03T19:47:27.107Z,100901.64
2019-05-03T19:49:56.814Z,100900.69
2019-05-03T19:52:28.225Z,100899.88
2019-05-03T19:54:58.024Z,100891.41
2019-05-03T19:57:32.448Z,100888.98
2019-05-03T20:00:02.106Z,100890.22
2019-05-03T20:02:35.230Z,100892.94
2019-05-03T20:05:14.817Z,100890.65
2019-05-03T20:08:05.143Z,100895.25
2019-05-03T20:10:35.376Z,100893.67
2019-05-03T20:13:05.214Z,100894.00
2019-05-03T20:15:34.977Z,100889.76
2019-05-03T20:18:04.942Z,100891.58
2019-05-03T20:20:35.036Z,100887.34
2019-05-03T20:23:05.326Z,100883.84
2019-05-03T20:25:35.319Z,100880.48
2019-05-03T20:28:05.278Z,100881.56
2019-05-03T20:30:35.219Z,100883.01
2019-05-03T20:33:05.111Z,100879.23
2019-05-03T20:35:35.655Z,100877.09
2019-05-03T20:38:05.572Z,100875.80
2019-05-03T20:40:35.242Z,100874.39
2019-05-03T20:43:12.445Z,100874.71
2019-05-03T20:45:41.867Z,100878.21
2019-05-03T20:48:14.525Z,100875.06
2019-05-03T20:50:44.788Z,100875.31
2019-05-03T20:53:14.672Z,100877.50
2019-05-03T20:55:45.090Z,100872.22
2019-05-03T20:58:15.256Z,100871.97
2019-05-03T21:00:45.196Z,100872.46
2019-05-03T21:03:15.348Z,100873.02
2019-05-03T21:05:45.107Z,100863.70
2019-05-03T21:08:14.904Z,100862.09
2019-05-03T21:10:45.931Z,100860.45
2019-05-03T21:13:15.655Z,100844.31
2019-05-03T21:16:02.094Z,100842.73
2019-05-03T21:18:31.689Z,100849.88
2019-05-03T21:21:03.157Z,100853.38
2019-05-03T21:23:44.928Z,100864.56
2019-05-03T21:26:16.689Z,100864.88
2019-05-03T21:28:46.637Z,100854.27
2019-05-03T21:31:16.424Z,100852.66
2019-05-03T21:33:46.085Z,100852.58
2019-05-03T21:36:15.841Z,100850.50
2019-05-03T21:38:45.622Z,100845.92
2019-05-03T21:41:15.767Z,100848.83
2019-05-03T21:43:45.764Z,100843.33
2019-05-03T21:46:15.268Z,100850.55
2019-05-03T21:49:01.929Z,100847.03
2019-05-03T21:51:31.634Z,100841.50
2019-05-03T21:54:01.365Z,100837.56
2019-05-03T21:56:31.105Z,100838.91
2019-05-03T21:59:05.584Z,100834.48
2019-05-03T22:01:37.818Z,100836.64
2019-05-03T22:04:07.810Z,100843.58
2019-05-03T22:06:37.540Z,100843.61
2019-05-03T22:09:07.635Z,100844.13
2019-05-03T22:11:37.293Z,100842.88
2019-05-03T22:14:08.693Z,100846.84
2019-05-03T22:16:40.060Z,100839.68
2019-05-03T22:19:09.790Z,100838.08
2019-05-03T22:21:45.213Z,100835.97
2019-05-03T22:24:19.147Z,100834.38
2019-05-03T22:26:53.374Z,100821.11
2019-05-03T22:29:25.214Z,100822.17
2019-05-03T22:31:54.934Z,100817.15
2019-05-03T22:34:25.718Z,100816.59
2019-05-03T22:36:55.882Z,100816.85
2019-05-03T22:39:25.874Z,100820.58
2019-05-03T22:41:55.676Z,100812.06
2019-05-03T22:44:25.570Z,100813.66
2019-05-03T22:46:55.349Z,100815.23
2019-05-03T22:49:26.004Z,100813.13
2019-05-03T22:51:55.915Z,100804.37
2019-05-03T22:54:25.672Z,100805.95
2019-05-03T22:56:55.709Z,100800.41
2019-05-03T22:59:25.504Z,100800.16
2019-05-03T23:01:55.471Z,100798.28
2019-05-03T23:04:25.542Z,100786.63
2019-05-03T23:06:55.816Z,100787.70
2019-05-03T23:09:25.677Z,100785.58
2019-05-03T23:11:55.488Z,100785.33
2019-05-03T23:14:25.795Z,100780.55
2019-05-03T23:16:55.601Z,100774.43
2019-05-03T23:19:25.354Z,100773.38
2019-05-03T23:21:56.741Z,100773.10
2019-05-03T23:24:26.486Z,100774.70
2019-05-03T23:26:56.266Z,100781.85
2019-05-03T23:29:26.000Z,100773.37
2019-05-03T23:31:55.783Z,100774.42
2019-05-03T23:34:25.495Z,100772.59
2019-05-03T23:36:55.832Z,100770.70
2019-05-03T23:39:25.596Z,100770.19
2019-05-03T23:41:55.840Z,100764.91
2019-05-03T23:44:25.599Z,100776.52
2019-05-03T23:46:59.698Z,100775.44
2019-05-03T23:49:29.435Z,100775.44
2019-05-03T23:52:00.919Z,100771.41
2019-05-03T23:54:30.632Z,100767.16
2019-05-03T23:57:00.356Z,100763.34
2019-05-03T23:59:30.142Z,100768.60
